This is the latest recevied weather packets stored in our database for station/object K0SDS. If no packets are shown the sender has not sent any weather packets the latest 10 day(s).
| Time | Temp. | Humidity | Pressure | Rain* | Wind** | Luminosity | Snow |
|---|---|---|---|---|---|---|---|
| 1777838352 | 27.22° C | 38% | 1009.9 hPa | 0 mm | - | 578 W/m² | - |
| 1777838049 | 27.22° C | 45% | 1009.7 hPa | 0 mm | - | 579 W/m² | - |
| 1777837745 | 27.22° C | 38% | 1010.1 hPa | 0 mm | - | 626 W/m² | - |
| 1777837442 | 27.22° C | 37% | 1010 hPa | 0 mm | - | 626 W/m² | - |
| 1777837138 | 26.67° C | 44% | 1010 hPa | 0 mm | - | 638 W/m² | - |
| 1777836834 | 27.22° C | 35% | 1010.1 hPa | 0 mm | - | 647 W/m² | - |
| 1777836529 | 26.67° C | 38% | 1009.9 hPa | 0 mm | - | 669 W/m² | - |
| 1777836225 | 27.22° C | 35% | 1010.2 hPa | 0 mm | - | 667 W/m² | - |
| 1777835922 | 26.67° C | 39% | 1009.9 hPa | 0 mm | - | 635 W/m² | - |
| 1777835619 | 26.67° C | 36% | 1010.1 hPa | 0 mm | - | 604 W/m² | - |
| 1777835316 | 26.67° C | 41% | 1010.4 hPa | 0 mm | - | 650 W/m² | - |
| 1777835013 | 26.67° C | 38% | 1010.3 hPa | 0 mm | - | 642 W/m² | - |
| 1777834710 | 26.11° C | 39% | 1010.4 hPa | 0 mm | - | 660 W/m² | - |
| 1777834405 | 26.67° C | 41% | 1010.5 hPa | 0 mm | - | 625 W/m² | - |
| 1777834100 | 26.11° C | 42% | 1010.4 hPa | 0 mm | - | 664 W/m² | - |
| 1777833797 | 26.11° C | 42% | 1010.6 hPa | 0 mm | - | 626 W/m² | - |
| 1777833492 | 25.56° C | 40% | 1010.7 hPa | 0 mm | - | 607 W/m² | - |
| 1777833190 | 26.11° C | 38% | 1010.9 hPa | 0 mm | - | 615 W/m² | - |
| 1777832887 | 26.11° C | 39% | 1011 hPa | 0 mm | - | 632 W/m² | - |
| 1777832586 | 25.56° C | 38% | 1010.9 hPa | 0 mm | - | 645 W/m² | - |
| 1777832283 | 25.56° C | 39% | 1010.9 hPa | 0 mm | - | 643 W/m² | - |
| 1777831980 | 25.56° C | 40% | 1011.1 hPa | 0 mm | - | 638 W/m² | - |
| 1777831676 | 25.56° C | 39% | 1011.4 hPa | 0 mm | - | 649 W/m² | - |
| 1777831375 | 25.56° C | 39% | 1011.4 hPa | 0 mm | - | 727 W/m² | - |
| 1777831070 | 25° C | 42% | 1011.1 hPa | 0 mm | - | 738 W/m² | - |
* Rain latest hour (hover to see other rain measurements)
** Current wind speed in m/s (hover to see current wind gust speed)